sensor_id;sensor_type;location;lat;lon;timestamp;P1;durP1;ratioP1;P2;durP2;ratioP2
12556;SDS011;6344;49.932;8.308;2023-06-14T00:00:33;9.70;;;8.77;;
12556;SDS011;6344;49.932;8.308;2023-06-14T00:03:00;8.73;;;8.10;;
12556;SDS011;6344;49.932;8.308;2023-06-14T00:05:27;9.90;;;8.90;;
12556;SDS011;6344;49.932;8.308;2023-06-14T00:07:54;9.13;;;8.53;;
12556;SDS011;6344;49.932;8.308;2023-06-14T00:10:22;10.20;;;9.40;;
12556;SDS011;6344;49.932;8.308;2023-06-14T00:12:49;9.03;;;8.33;;
12556;SDS011;6344;49.932;8.308;2023-06-14T00:15:16;10.17;;;9.40;;
12556;SDS011;6344;49.932;8.308;2023-06-14T00:17:42;8.97;;;8.27;;
12556;SDS011;6344;49.932;8.308;2023-06-14T00:20:12;9.00;;;8.20;;
12556;SDS011;6344;49.932;8.308;2023-06-14T00:22:39;9.57;;;8.67;;
12556;SDS011;6344;49.932;8.308;2023-06-14T00:25:06;9.57;;;8.77;;
12556;SDS011;6344;49.932;8.308;2023-06-14T00:27:34;9.53;;;8.73;;
12556;SDS011;6344;49.932;8.308;2023-06-14T00:30:01;10.43;;;9.53;;
12556;SDS011;6344;49.932;8.308;2023-06-14T00:32:27;9.90;;;8.97;;
12556;SDS011;6344;49.932;8.308;2023-06-14T00:34:54;9.17;;;8.27;;
12556;SDS011;6344;49.932;8.308;2023-06-14T00:37:21;10.97;;;8.70;;
12556;SDS011;6344;49.932;8.308;2023-06-14T00:39:48;10.93;;;10.00;;
12556;SDS011;6344;49.932;8.308;2023-06-14T00:42:22;10.53;;;8.67;;
12556;SDS011;6344;49.932;8.308;2023-06-14T00:44:51;9.30;;;8.10;;
12556;SDS011;6344;49.932;8.308;2023-06-14T00:47:18;11.20;;;9.50;;
12556;SDS011;6344;49.932;8.308;2023-06-14T00:49:45;10.60;;;9.60;;
12556;SDS011;6344;49.932;8.308;2023-06-14T00:52:12;10.13;;;8.97;;
12556;SDS011;6344;49.932;8.308;2023-06-14T00:54:39;10.23;;;9.43;;
12556;SDS011;6344;49.932;8.308;2023-06-14T00:57:06;9.53;;;8.77;;
12556;SDS011;6344;49.932;8.308;2023-06-14T00:59:33;9.63;;;8.83;;
12556;SDS011;6344;49.932;8.308;2023-06-14T01:02:02;9.07;;;8.27;;
12556;SDS011;6344;49.932;8.308;2023-06-14T01:04:29;9.20;;;8.50;;
12556;SDS011;6344;49.932;8.308;2023-06-14T01:06:57;9.43;;;8.63;;
12556;SDS011;6344;49.932;8.308;2023-06-14T01:09:36;8.90;;;7.90;;
12556;SDS011;6344;49.932;8.308;2023-06-14T01:12:10;9.83;;;9.03;;
12556;SDS011;6344;49.932;8.308;2023-06-14T01:14:41;9.43;;;8.53;;
12556;SDS011;6344;49.932;8.308;2023-06-14T01:17:10;8.57;;;7.97;;
12556;SDS011;6344;49.932;8.308;2023-06-14T01:19:41;9.00;;;8.23;;
12556;SDS011;6344;49.932;8.308;2023-06-14T01:22:09;9.27;;;7.57;;
12556;SDS011;6344;49.932;8.308;2023-06-14T01:24:38;9.10;;;8.40;;
12556;SDS011;6344;49.932;8.308;2023-06-14T01:27:09;9.23;;;8.23;;
12556;SDS011;6344;49.932;8.308;2023-06-14T01:29:38;9.13;;;8.33;;
12556;SDS011;6344;49.932;8.308;2023-06-14T01:32:10;9.47;;;8.67;;
12556;SDS011;6344;49.932;8.308;2023-06-14T01:34:38;8.93;;;8.17;;
12556;SDS011;6344;49.932;8.308;2023-06-14T01:37:05;9.17;;;8.50;;
12556;SDS011;6344;49.932;8.308;2023-06-14T01:39:32;9.67;;;8.67;;
12556;SDS011;6344;49.932;8.308;2023-06-14T01:42:01;8.30;;;7.60;;
12556;SDS011;6344;49.932;8.308;2023-06-14T01:44:28;8.47;;;7.67;;
12556;SDS011;6344;49.932;8.308;2023-06-14T01:46:56;8.03;;;7.43;;
12556;SDS011;6344;49.932;8.308;2023-06-14T01:49:23;8.40;;;7.80;;
12556;SDS011;6344;49.932;8.308;2023-06-14T01:51:50;7.93;;;7.33;;
12556;SDS011;6344;49.932;8.308;2023-06-14T01:54:16;8.97;;;8.10;;
12556;SDS011;6344;49.932;8.308;2023-06-14T01:56:43;7.90;;;7.23;;
12556;SDS011;6344;49.932;8.308;2023-06-14T01:59:11;8.20;;;7.47;;
12556;SDS011;6344;49.932;8.308;2023-06-14T02:01:38;8.70;;;7.90;;
12556;SDS011;6344;49.932;8.308;2023-06-14T02:04:05;7.47;;;6.87;;
12556;SDS011;6344;49.932;8.308;2023-06-14T02:06:32;8.80;;;8.10;;
12556;SDS011;6344;49.932;8.308;2023-06-14T02:09:00;7.90;;;7.30;;
12556;SDS011;6344;49.932;8.308;2023-06-14T02:11:27;8.93;;;8.10;;
12556;SDS011;6344;49.932;8.308;2023-06-14T02:13:54;7.50;;;7.00;;
12556;SDS011;6344;49.932;8.308;2023-06-14T02:16:22;7.90;;;7.33;;
12556;SDS011;6344;49.932;8.308;2023-06-14T02:18:49;8.60;;;7.90;;
12556;SDS011;6344;49.932;8.308;2023-06-14T02:21:16;8.30;;;7.70;;
12556;SDS011;6344;49.932;8.308;2023-06-14T02:23:43;8.23;;;7.63;;
12556;SDS011;6344;49.932;8.308;2023-06-14T02:26:10;8.47;;;7.80;;
12556;SDS011;6344;49.932;8.308;2023-06-14T02:28:36;8.07;;;7.50;;
12556;SDS011;6344;49.932;8.308;2023-06-14T02:31:03;8.30;;;7.53;;
12556;SDS011;6344;49.932;8.308;2023-06-14T02:33:32;7.77;;;7.00;;
12556;SDS011;6344;49.932;8.308;2023-06-14T02:35:59;7.50;;;7.00;;
12556;SDS011;6344;49.932;8.308;2023-06-14T02:38:27;8.07;;;7.33;;
12556;SDS011;6344;49.932;8.308;2023-06-14T02:40:54;7.80;;;7.20;;
12556;SDS011;6344;49.932;8.308;2023-06-14T02:43:21;7.20;;;6.67;;
12556;SDS011;6344;49.932;8.308;2023-06-14T02:45:47;9.63;;;8.20;;
12556;SDS011;6344;49.932;8.308;2023-06-14T02:48:14;8.57;;;7.77;;
12556;SDS011;6344;49.932;8.308;2023-06-14T02:50:42;7.83;;;7.23;;
12556;SDS011;6344;49.932;8.308;2023-06-14T02:56:31;8.50;;;7.80;;
12556;SDS011;6344;49.932;8.308;2023-06-14T02:58:58;6.97;;;6.47;;
12556;SDS011;6344;49.932;8.308;2023-06-14T03:01:25;8.87;;;8.00;;
12556;SDS011;6344;49.932;8.308;2023-06-14T03:03:59;8.27;;;7.17;;
12556;SDS011;6344;49.932;8.308;2023-06-14T03:06:27;8.60;;;6.97;;
12556;SDS011;6344;49.932;8.308;2023-06-14T03:08:54;7.60;;;6.90;;
12556;SDS011;6344;49.932;8.308;2023-06-14T03:11:24;7.43;;;6.93;;
12556;SDS011;6344;49.932;8.308;2023-06-14T03:13:50;8.87;;;8.17;;
12556;SDS011;6344;49.932;8.308;2023-06-14T03:16:17;7.87;;;7.17;;
12556;SDS011;6344;49.932;8.308;2023-06-14T03:18:47;8.00;;;7.20;;
12556;SDS011;6344;49.932;8.308;2023-06-14T03:21:14;8.27;;;7.47;;
12556;SDS011;6344;49.932;8.308;2023-06-14T03:23:43;7.97;;;7.33;;
12556;SDS011;6344;49.932;8.308;2023-06-14T03:26:10;8.33;;;7.70;;
12556;SDS011;6344;49.932;8.308;2023-06-14T03:28:38;8.27;;;7.47;;
12556;SDS011;6344;49.932;8.308;2023-06-14T03:31:04;8.03;;;7.30;;
12556;SDS011;6344;49.932;8.308;2023-06-14T03:33:31;6.70;;;6.23;;
12556;SDS011;6344;49.932;8.308;2023-06-14T03:35:58;7.30;;;6.70;;
12556;SDS011;6344;49.932;8.308;2023-06-14T03:38:24;8.60;;;7.80;;
12556;SDS011;6344;49.932;8.308;2023-06-14T03:40:53;7.37;;;6.77;;
12556;SDS011;6344;49.932;8.308;2023-06-14T03:43:19;8.23;;;7.53;;
12556;SDS011;6344;49.932;8.308;2023-06-14T03:45:46;8.57;;;6.87;;
12556;SDS011;6344;49.932;8.308;2023-06-14T03:48:13;7.63;;;7.03;;
12556;SDS011;6344;49.932;8.308;2023-06-14T03:50:39;7.23;;;6.73;;
12556;SDS011;6344;49.932;8.308;2023-06-14T03:53:08;7.67;;;7.07;;
12556;SDS011;6344;49.932;8.308;2023-06-14T03:55:34;7.43;;;6.83;;
12556;SDS011;6344;49.932;8.308;2023-06-14T03:58:04;7.60;;;6.80;;
12556;SDS011;6344;49.932;8.308;2023-06-14T04:00:31;7.00;;;6.27;;
12556;SDS011;6344;49.932;8.308;2023-06-14T04:02:58;7.63;;;6.90;;
12556;SDS011;6344;49.932;8.308;2023-06-14T04:05:24;7.40;;;6.80;;
12556;SDS011;6344;49.932;8.308;2023-06-14T04:07:52;8.80;;;7.33;;
12556;SDS011;6344;49.932;8.308;2023-06-14T04:10:20;7.40;;;6.80;;
12556;SDS011;6344;49.932;8.308;2023-06-14T04:12:47;7.67;;;7.00;;
12556;SDS011;6344;49.932;8.308;2023-06-14T04:15:16;8.33;;;7.70;;
12556;SDS011;6344;49.932;8.308;2023-06-14T04:17:43;6.77;;;6.27;;
12556;SDS011;6344;49.932;8.308;2023-06-14T04:20:10;6.97;;;6.37;;
12556;SDS011;6344;49.932;8.308;2023-06-14T04:22:36;7.57;;;6.83;;
12556;SDS011;6344;49.932;8.308;2023-06-14T04:25:03;7.40;;;6.80;;
12556;SDS011;6344;49.932;8.308;2023-06-14T04:27:31;7.10;;;6.60;;
12556;SDS011;6344;49.932;8.308;2023-06-14T04:30:01;7.60;;;6.93;;
12556;SDS011;6344;49.932;8.308;2023-06-14T04:32:29;8.40;;;7.70;;
12556;SDS011;6344;49.932;8.308;2023-06-14T04:34:58;8.23;;;7.53;;
12556;SDS011;6344;49.932;8.308;2023-06-14T04:37:27;6.20;;;5.80;;
12556;SDS011;6344;49.932;8.308;2023-06-14T04:39:54;8.27;;;7.47;;
12556;SDS011;6344;49.932;8.308;2023-06-14T04:42:21;7.60;;;6.90;;
12556;SDS011;6344;49.932;8.308;2023-06-14T04:44:50;13.23;;;7.97;;
12556;SDS011;6344;49.932;8.308;2023-06-14T04:47:19;8.07;;;7.27;;
12556;SDS011;6344;49.932;8.308;2023-06-14T04:49:48;8.40;;;7.10;;
12556;SDS011;6344;49.932;8.308;2023-06-14T04:52:15;7.87;;;6.97;;
12556;SDS011;6344;49.932;8.308;2023-06-14T04:54:42;7.40;;;6.80;;
12556;SDS011;6344;49.932;8.308;2023-06-14T04:57:09;7.20;;;6.70;;
12556;SDS011;6344;49.932;8.308;2023-06-14T04:59:38;9.30;;;8.40;;
12556;SDS011;6344;49.932;8.308;2023-06-14T05:02:05;6.67;;;6.27;;
12556;SDS011;6344;49.932;8.308;2023-06-14T05:04:32;7.33;;;6.60;;
12556;SDS011;6344;49.932;8.308;2023-06-14T05:07:00;8.17;;;7.47;;
12556;SDS011;6344;49.932;8.308;2023-06-14T05:09:27;8.03;;;7.40;;
12556;SDS011;6344;49.932;8.308;2023-06-14T05:11:54;8.27;;;7.47;;
12556;SDS011;6344;49.932;8.308;2023-06-14T05:14:21;9.27;;;7.77;;
12556;SDS011;6344;49.932;8.308;2023-06-14T05:16:48;7.50;;;6.90;;
12556;SDS011;6344;49.932;8.308;2023-06-14T05:19:15;6.97;;;6.40;;
12556;SDS011;6344;49.932;8.308;2023-06-14T05:21:42;6.53;;;6.10;;
12556;SDS011;6344;49.932;8.308;2023-06-14T05:24:11;7.47;;;6.87;;
12556;SDS011;6344;49.932;8.308;2023-06-14T05:26:37;7.40;;;6.80;;
12556;SDS011;6344;49.932;8.308;2023-06-14T05:29:04;9.33;;;6.50;;
12556;SDS011;6344;49.932;8.308;2023-06-14T05:31:31;7.87;;;7.27;;
12556;SDS011;6344;49.932;8.308;2023-06-14T05:33:58;8.63;;;7.80;;
12556;SDS011;6344;49.932;8.308;2023-06-14T05:36:25;8.63;;;6.57;;
12556;SDS011;6344;49.932;8.308;2023-06-14T05:38:52;7.20;;;6.60;;
12556;SDS011;6344;49.932;8.308;2023-06-14T05:41:23;6.80;;;6.23;;
12556;SDS011;6344;49.932;8.308;2023-06-14T05:43:50;10.03;;;8.33;;
12556;SDS011;6344;49.932;8.308;2023-06-14T05:46:17;8.73;;;7.40;;
12556;SDS011;6344;49.932;8.308;2023-06-14T05:48:47;8.27;;;7.20;;
12556;SDS011;6344;49.932;8.308;2023-06-14T05:51:13;8.00;;;7.20;;
12556;SDS011;6344;49.932;8.308;2023-06-14T05:53:43;6.37;;;5.83;;
12556;SDS011;6344;49.932;8.308;2023-06-14T05:56:10;7.13;;;6.53;;
12556;SDS011;6344;49.932;8.308;2023-06-14T05:58:38;7.20;;;6.50;;
12556;SDS011;6344;49.932;8.308;2023-06-14T06:01:05;6.30;;;5.80;;
12556;SDS011;6344;49.932;8.308;2023-06-14T06:03:32;6.60;;;5.90;;
12556;SDS011;6344;49.932;8.308;2023-06-14T06:05:59;6.37;;;5.97;;
12556;SDS011;6344;49.932;8.308;2023-06-14T06:08:26;7.07;;;6.57;;
12556;SDS011;6344;49.932;8.308;2023-06-14T06:10:53;7.40;;;6.50;;
12556;SDS011;6344;49.932;8.308;2023-06-14T06:13:19;6.67;;;6.10;;
12556;SDS011;6344;49.932;8.308;2023-06-14T06:15:47;6.70;;;6.10;;
12556;SDS011;6344;49.932;8.308;2023-06-14T06:18:14;7.23;;;6.50;;
12556;SDS011;6344;49.932;8.308;2023-06-14T06:20:41;8.00;;;6.73;;
12556;SDS011;6344;49.932;8.308;2023-06-14T06:23:09;7.13;;;6.60;;
12556;SDS011;6344;49.932;8.308;2023-06-14T06:25:35;6.40;;;5.90;;
12556;SDS011;6344;49.932;8.308;2023-06-14T06:28:02;6.43;;;5.83;;
12556;SDS011;6344;49.932;8.308;2023-06-14T06:30:29;6.07;;;5.63;;
12556;SDS011;6344;49.932;8.308;2023-06-14T06:32:57;6.60;;;6.00;;
12556;SDS011;6344;49.932;8.308;2023-06-14T06:35:24;6.60;;;5.90;;
12556;SDS011;6344;49.932;8.308;2023-06-14T06:37:51;6.77;;;6.20;;
12556;SDS011;6344;49.932;8.308;2023-06-14T06:40:17;7.37;;;6.00;;
12556;SDS011;6344;49.932;8.308;2023-06-14T06:42:44;6.93;;;6.13;;
12556;SDS011;6344;49.932;8.308;2023-06-14T06:45:11;7.00;;;6.50;;
12556;SDS011;6344;49.932;8.308;2023-06-14T06:47:38;12.80;;;6.50;;
12556;SDS011;6344;49.932;8.308;2023-06-14T06:50:06;7.37;;;6.77;;
12556;SDS011;6344;49.932;8.308;2023-06-14T06:52:34;9.40;;;7.10;;
12556;SDS011;6344;49.932;8.308;2023-06-14T06:55:00;7.17;;;6.57;;
12556;SDS011;6344;49.932;8.308;2023-06-14T06:57:28;6.70;;;6.30;;
12556;SDS011;6344;49.932;8.308;2023-06-14T06:59:55;7.23;;;5.77;;
12556;SDS011;6344;49.932;8.308;2023-06-14T07:02:21;6.47;;;5.97;;
12556;SDS011;6344;49.932;8.308;2023-06-14T07:04:48;8.50;;;6.53;;
12556;SDS011;6344;49.932;8.308;2023-06-14T07:07:17;7.57;;;7.07;;
12556;SDS011;6344;49.932;8.308;2023-06-14T07:09:44;8.37;;;6.30;;
12556;SDS011;6344;49.932;8.308;2023-06-14T07:12:11;7.10;;;6.50;;
12556;SDS011;6344;49.932;8.308;2023-06-14T07:14:37;6.20;;;5.70;;
12556;SDS011;6344;49.932;8.308;2023-06-14T07:17:04;7.20;;;6.70;;
12556;SDS011;6344;49.932;8.308;2023-06-14T07:19:31;6.90;;;6.50;;
12556;SDS011;6344;49.932;8.308;2023-06-14T07:21:58;5.87;;;5.43;;
12556;SDS011;6344;49.932;8.308;2023-06-14T07:24:26;6.93;;;5.90;;
12556;SDS011;6344;49.932;8.308;2023-06-14T07:26:53;7.30;;;6.63;;
12556;SDS011;6344;49.932;8.308;2023-06-14T07:29:21;4.40;;;4.10;;
12556;SDS011;6344;49.932;8.308;2023-06-14T07:31:48;5.60;;;5.20;;
12556;SDS011;6344;49.932;8.308;2023-06-14T07:34:14;6.70;;;6.20;;
12556;SDS011;6344;49.932;8.308;2023-06-14T07:36:41;6.40;;;5.40;;
12556;SDS011;6344;49.932;8.308;2023-06-14T07:39:09;7.00;;;6.40;;
12556;SDS011;6344;49.932;8.308;2023-06-14T07:41:37;6.90;;;5.63;;
12556;SDS011;6344;49.932;8.308;2023-06-14T07:44:04;6.13;;;5.63;;
12556;SDS011;6344;49.932;8.308;2023-06-14T07:46:31;5.10;;;4.70;;
12556;SDS011;6344;49.932;8.308;2023-06-14T07:48:59;6.03;;;5.63;;
12556;SDS011;6344;49.932;8.308;2023-06-14T07:51:26;6.00;;;5.60;;
12556;SDS011;6344;49.932;8.308;2023-06-14T07:53:52;6.80;;;6.30;;
12556;SDS011;6344;49.932;8.308;2023-06-14T07:56:20;8.60;;;6.60;;
12556;SDS011;6344;49.932;8.308;2023-06-14T07:58:48;5.90;;;5.40;;
12556;SDS011;6344;49.932;8.308;2023-06-14T08:01:14;13.40;;;5.90;;
12556;SDS011;6344;49.932;8.308;2023-06-14T08:03:42;5.07;;;4.67;;
12556;SDS011;6344;49.932;8.308;2023-06-14T08:06:08;5.03;;;4.57;;
12556;SDS011;6344;49.932;8.308;2023-06-14T08:08:35;6.00;;;4.70;;
12556;SDS011;6344;49.932;8.308;2023-06-14T08:11:02;5.20;;;4.80;;
12556;SDS011;6344;49.932;8.308;2023-06-14T08:13:29;5.70;;;4.47;;
12556;SDS011;6344;49.932;8.308;2023-06-14T08:15:57;5.37;;;4.87;;
12556;SDS011;6344;49.932;8.308;2023-06-14T08:18:25;6.47;;;4.87;;
12556;SDS011;6344;49.932;8.308;2023-06-14T08:20:52;5.10;;;4.70;;
12556;SDS011;6344;49.932;8.308;2023-06-14T08:23:19;4.50;;;4.23;;
12556;SDS011;6344;49.932;8.308;2023-06-14T08:25:46;7.77;;;5.30;;
12556;SDS011;6344;49.932;8.308;2023-06-14T08:28:13;5.53;;;5.10;;
12556;SDS011;6344;49.932;8.308;2023-06-14T08:30:41;4.57;;;4.27;;
12556;SDS011;6344;49.932;8.308;2023-06-14T08:33:09;5.30;;;4.90;;
12556;SDS011;6344;49.932;8.308;2023-06-14T08:35:36;5.03;;;4.73;;
12556;SDS011;6344;49.932;8.308;2023-06-14T08:38:04;4.47;;;4.17;;
12556;SDS011;6344;49.932;8.308;2023-06-14T08:40:31;4.13;;;3.93;;
12556;SDS011;6344;49.932;8.308;2023-06-14T08:43:02;5.93;;;4.33;;
12556;SDS011;6344;49.932;8.308;2023-06-14T08:45:29;5.03;;;4.63;;
12556;SDS011;6344;49.932;8.308;2023-06-14T08:47:56;4.20;;;3.90;;
12556;SDS011;6344;49.932;8.308;2023-06-14T08:50:26;3.93;;;3.73;;
12556;SDS011;6344;49.932;8.308;2023-06-14T08:52:55;4.10;;;3.80;;
12556;SDS011;6344;49.932;8.308;2023-06-14T08:55:25;4.17;;;3.97;;
12556;SDS011;6344;49.932;8.308;2023-06-14T08:57:54;4.53;;;4.13;;
12556;SDS011;6344;49.932;8.308;2023-06-14T09:00:22;4.03;;;3.73;;
12556;SDS011;6344;49.932;8.308;2023-06-14T09:02:49;4.77;;;3.93;;
12556;SDS011;6344;49.932;8.308;2023-06-14T09:05:20;6.70;;;3.47;;
12556;SDS011;6344;49.932;8.308;2023-06-14T09:07:49;8.43;;;3.70;;
12556;SDS011;6344;49.932;8.308;2023-06-14T09:10:17;4.30;;;4.00;;
12556;SDS011;6344;49.932;8.308;2023-06-14T09:12:44;4.40;;;4.10;;
12556;SDS011;6344;49.932;8.308;2023-06-14T09:15:12;3.80;;;3.50;;
12556;SDS011;6344;49.932;8.308;2023-06-14T09:17:39;3.30;;;3.00;;
12556;SDS011;6344;49.932;8.308;2023-06-14T09:20:07;4.13;;;3.83;;
12556;SDS011;6344;49.932;8.308;2023-06-14T09:22:35;4.37;;;3.80;;
12556;SDS011;6344;49.932;8.308;2023-06-14T09:25:04;4.20;;;3.53;;
12556;SDS011;6344;49.932;8.308;2023-06-14T09:27:32;4.10;;;3.80;;
12556;SDS011;6344;49.932;8.308;2023-06-14T09:30:00;3.30;;;3.10;;
12556;SDS011;6344;49.932;8.308;2023-06-14T09:32:27;4.23;;;3.03;;
12556;SDS011;6344;49.932;8.308;2023-06-14T09:34:55;3.60;;;3.40;;
12556;SDS011;6344;49.932;8.308;2023-06-14T09:37:28;3.17;;;2.93;;
12556;SDS011;6344;49.932;8.308;2023-06-14T09:39:56;3.50;;;3.17;;
12556;SDS011;6344;49.932;8.308;2023-06-14T09:42:24;4.73;;;2.97;;
12556;SDS011;6344;49.932;8.308;2023-06-14T09:44:53;2.90;;;2.70;;
12556;SDS011;6344;49.932;8.308;2023-06-14T09:47:20;3.37;;;3.17;;
12556;SDS011;6344;49.932;8.308;2023-06-14T09:49:47;2.80;;;2.70;;
12556;SDS011;6344;49.932;8.308;2023-06-14T09:52:16;2.60;;;2.50;;
12556;SDS011;6344;49.932;8.308;2023-06-14T09:54:44;4.47;;;2.57;;
12556;SDS011;6344;49.932;8.308;2023-06-14T09:57:12;3.07;;;2.77;;
12556;SDS011;6344;49.932;8.308;2023-06-14T09:59:42;5.60;;;3.30;;
12556;SDS011;6344;49.932;8.308;2023-06-14T10:02:11;5.63;;;2.63;;
12556;SDS011;6344;49.932;8.308;2023-06-14T10:04:50;3.17;;;2.93;;
12556;SDS011;6344;49.932;8.308;2023-06-14T10:07:25;3.47;;;3.27;;
12556;SDS011;6344;49.932;8.308;2023-06-14T10:09:55;3.57;;;3.37;;
12556;SDS011;6344;49.932;8.308;2023-06-14T10:12:22;3.40;;;3.10;;
12556;SDS011;6344;49.932;8.308;2023-06-14T10:14:50;3.77;;;3.47;;
12556;SDS011;6344;49.932;8.308;2023-06-14T10:17:20;3.17;;;2.97;;
12556;SDS011;6344;49.932;8.308;2023-06-14T10:19:55;3.37;;;3.17;;
12556;SDS011;6344;49.932;8.308;2023-06-14T10:22:30;3.40;;;3.20;;
12556;SDS011;6344;49.932;8.308;2023-06-14T10:25:02;3.80;;;3.50;;
12556;SDS011;6344;49.932;8.308;2023-06-14T10:27:32;4.03;;;3.63;;
12556;SDS011;6344;49.932;8.308;2023-06-14T10:30:04;3.20;;;3.00;;
12556;SDS011;6344;49.932;8.308;2023-06-14T10:32:33;4.53;;;3.40;;
12556;SDS011;6344;49.932;8.308;2023-06-14T10:35:01;3.37;;;3.17;;
12556;SDS011;6344;49.932;8.308;2023-06-14T10:37:30;3.23;;;3.03;;
12556;SDS011;6344;49.932;8.308;2023-06-14T10:39:58;3.60;;;3.40;;
12556;SDS011;6344;49.932;8.308;2023-06-14T10:42:27;3.67;;;3.37;;
12556;SDS011;6344;49.932;8.308;2023-06-14T10:44:56;3.13;;;3.03;;
12556;SDS011;6344;49.932;8.308;2023-06-14T10:47:27;3.27;;;3.07;;
12556;SDS011;6344;49.932;8.308;2023-06-14T10:49:56;3.67;;;3.40;;
12556;SDS011;6344;49.932;8.308;2023-06-14T10:52:29;4.20;;;3.43;;
12556;SDS011;6344;49.932;8.308;2023-06-14T10:55:08;3.70;;;3.47;;
12556;SDS011;6344;49.932;8.308;2023-06-14T10:57:36;6.20;;;3.23;;
12556;SDS011;6344;49.932;8.308;2023-06-14T11:00:05;2.70;;;2.60;;
12556;SDS011;6344;49.932;8.308;2023-06-14T11:05:41;3.73;;;3.43;;
12556;SDS011;6344;49.932;8.308;2023-06-14T11:08:18;3.20;;;3.10;;
12556;SDS011;6344;49.932;8.308;2023-06-14T11:11:10;4.20;;;3.03;;
12556;SDS011;6344;49.932;8.308;2023-06-14T11:13:39;3.80;;;3.50;;
12556;SDS011;6344;49.932;8.308;2023-06-14T11:16:11;3.57;;;3.30;;
12556;SDS011;6344;49.932;8.308;2023-06-14T11:18:40;3.20;;;3.00;;
12556;SDS011;6344;49.932;8.308;2023-06-14T11:21:07;3.70;;;3.43;;
12556;SDS011;6344;49.932;8.308;2023-06-14T11:23:34;4.00;;;3.70;;
12556;SDS011;6344;49.932;8.308;2023-06-14T11:26:01;3.80;;;3.50;;
12556;SDS011;6344;49.932;8.308;2023-06-14T11:28:36;4.13;;;3.93;;
12556;SDS011;6344;49.932;8.308;2023-06-14T11:31:06;3.60;;;3.40;;
12556;SDS011;6344;49.932;8.308;2023-06-14T11:33:33;4.03;;;3.00;;
12556;SDS011;6344;49.932;8.308;2023-06-14T11:36:02;4.77;;;3.43;;
12556;SDS011;6344;49.932;8.308;2023-06-14T11:38:34;3.73;;;3.50;;
12556;SDS011;6344;49.932;8.308;2023-06-14T11:41:02;3.53;;;3.33;;
12556;SDS011;6344;49.932;8.308;2023-06-14T11:43:28;4.83;;;4.40;;
12556;SDS011;6344;49.932;8.308;2023-06-14T11:45:57;3.87;;;3.67;;
12556;SDS011;6344;49.932;8.308;2023-06-14T11:48:35;3.60;;;3.40;;
12556;SDS011;6344;49.932;8.308;2023-06-14T11:51:03;3.50;;;3.20;;
12556;SDS011;6344;49.932;8.308;2023-06-14T11:53:30;4.47;;;3.83;;
12556;SDS011;6344;49.932;8.308;2023-06-14T11:55:57;3.80;;;3.60;;
12556;SDS011;6344;49.932;8.308;2023-06-14T11:58:24;3.77;;;3.50;;
12556;SDS011;6344;49.932;8.308;2023-06-14T12:00:51;3.73;;;3.50;;
12556;SDS011;6344;49.932;8.308;2023-06-14T12:03:22;4.40;;;3.90;;
12556;SDS011;6344;49.932;8.308;2023-06-14T12:05:50;4.13;;;3.83;;
12556;SDS011;6344;49.932;8.308;2023-06-14T12:08:21;4.37;;;4.17;;
12556;SDS011;6344;49.932;8.308;2023-06-14T12:10:58;7.10;;;4.07;;
12556;SDS011;6344;49.932;8.308;2023-06-14T12:13:25;4.13;;;3.83;;
12556;SDS011;6344;49.932;8.308;2023-06-14T12:15:55;4.17;;;3.90;;
12556;SDS011;6344;49.932;8.308;2023-06-14T12:18:31;6.50;;;3.83;;
12556;SDS011;6344;49.932;8.308;2023-06-14T12:20:59;4.47;;;4.17;;
12556;SDS011;6344;49.932;8.308;2023-06-14T12:23:39;3.53;;;3.33;;
12556;SDS011;6344;49.932;8.308;2023-06-14T12:26:08;4.33;;;3.93;;
12556;SDS011;6344;49.932;8.308;2023-06-14T12:28:35;4.23;;;3.60;;
12556;SDS011;6344;49.932;8.308;2023-06-14T12:31:02;4.10;;;3.90;;
12556;SDS011;6344;49.932;8.308;2023-06-14T12:33:29;3.97;;;3.67;;
12556;SDS011;6344;49.932;8.308;2023-06-14T12:35:56;4.47;;;4.13;;
12556;SDS011;6344;49.932;8.308;2023-06-14T12:38:23;3.90;;;3.70;;
12556;SDS011;6344;49.932;8.308;2023-06-14T12:40:51;4.40;;;4.20;;
12556;SDS011;6344;49.932;8.308;2023-06-14T12:43:18;4.37;;;4.17;;
12556;SDS011;6344;49.932;8.308;2023-06-14T12:45:45;4.43;;;4.10;;
12556;SDS011;6344;49.932;8.308;2023-06-14T12:48:12;4.53;;;4.30;;
12556;SDS011;6344;49.932;8.308;2023-06-14T12:50:38;3.80;;;3.60;;
12556;SDS011;6344;49.932;8.308;2023-06-14T12:53:05;4.20;;;4.00;;
12556;SDS011;6344;49.932;8.308;2023-06-14T12:55:32;4.13;;;3.93;;
12556;SDS011;6344;49.932;8.308;2023-06-14T12:58:00;4.43;;;4.13;;
12556;SDS011;6344;49.932;8.308;2023-06-14T13:00:27;4.83;;;3.90;;
12556;SDS011;6344;49.932;8.308;2023-06-14T13:02:55;4.20;;;3.80;;
12556;SDS011;6344;49.932;8.308;2023-06-14T13:05:22;5.87;;;3.67;;
12556;SDS011;6344;49.932;8.308;2023-06-14T13:07:49;3.83;;;3.63;;
12556;SDS011;6344;49.932;8.308;2023-06-14T13:10:16;3.63;;;3.33;;
12556;SDS011;6344;49.932;8.308;2023-06-14T13:12:43;5.30;;;4.90;;
12556;SDS011;6344;49.932;8.308;2023-06-14T13:15:11;3.33;;;3.13;;
12556;SDS011;6344;49.932;8.308;2023-06-14T13:17:38;5.40;;;4.40;;
12556;SDS011;6344;49.932;8.308;2023-06-14T13:20:05;4.30;;;3.97;;
12556;SDS011;6344;49.932;8.308;2023-06-14T13:22:33;3.77;;;3.47;;
12556;SDS011;6344;49.932;8.308;2023-06-14T13:24:59;4.47;;;4.10;;
12556;SDS011;6344;49.932;8.308;2023-06-14T13:27:26;3.83;;;3.53;;
12556;SDS011;6344;49.932;8.308;2023-06-14T13:29:53;4.00;;;3.70;;
12556;SDS011;6344;49.932;8.308;2023-06-14T13:32:23;4.17;;;3.87;;
12556;SDS011;6344;49.932;8.308;2023-06-14T13:34:50;4.00;;;3.70;;
12556;SDS011;6344;49.932;8.308;2023-06-14T13:37:16;3.83;;;3.63;;
12556;SDS011;6344;49.932;8.308;2023-06-14T13:39:43;3.73;;;3.53;;
12556;SDS011;6344;49.932;8.308;2023-06-14T13:42:10;5.00;;;4.60;;
12556;SDS011;6344;49.932;8.308;2023-06-14T13:44:37;4.47;;;4.20;;
12556;SDS011;6344;49.932;8.308;2023-06-14T13:47:04;4.70;;;4.40;;
12556;SDS011;6344;49.932;8.308;2023-06-14T13:49:33;4.93;;;4.63;;
12556;SDS011;6344;49.932;8.308;2023-06-14T13:52:00;5.50;;;5.20;;
12556;SDS011;6344;49.932;8.308;2023-06-14T13:54:27;8.00;;;7.40;;
12556;SDS011;6344;49.932;8.308;2023-06-14T13:56:54;5.40;;;5.00;;
12556;SDS011;6344;49.932;8.308;2023-06-14T13:59:21;5.03;;;4.63;;
12556;SDS011;6344;49.932;8.308;2023-06-14T14:01:48;5.83;;;5.40;;
12556;SDS011;6344;49.932;8.308;2023-06-14T14:04:14;5.90;;;4.63;;
12556;SDS011;6344;49.932;8.308;2023-06-14T14:06:42;5.33;;;5.03;;
12556;SDS011;6344;49.932;8.308;2023-06-14T14:09:10;4.90;;;4.50;;
12556;SDS011;6344;49.932;8.308;2023-06-14T14:11:37;5.80;;;5.50;;
12556;SDS011;6344;49.932;8.308;2023-06-14T14:14:04;5.33;;;4.90;;
12556;SDS011;6344;49.932;8.308;2023-06-14T14:16:31;5.00;;;4.70;;
12556;SDS011;6344;49.932;8.308;2023-06-14T14:18:58;5.57;;;5.27;;
12556;SDS011;6344;49.932;8.308;2023-06-14T14:21:25;5.63;;;5.33;;
12556;SDS011;6344;49.932;8.308;2023-06-14T14:23:53;5.40;;;5.00;;
12556;SDS011;6344;49.932;8.308;2023-06-14T14:26:20;5.70;;;5.20;;
12556;SDS011;6344;49.932;8.308;2023-06-14T14:28:46;5.97;;;5.57;;
12556;SDS011;6344;49.932;8.308;2023-06-14T14:31:13;5.43;;;5.13;;
12556;SDS011;6344;49.932;8.308;2023-06-14T14:33:40;4.73;;;4.43;;
12556;SDS011;6344;49.932;8.308;2023-06-14T14:36:06;5.53;;;5.03;;
12556;SDS011;6344;49.932;8.308;2023-06-14T14:38:33;5.73;;;5.33;;
12556;SDS011;6344;49.932;8.308;2023-06-14T14:41:01;5.33;;;4.83;;
12556;SDS011;6344;49.932;8.308;2023-06-14T14:43:28;5.33;;;4.83;;
12556;SDS011;6344;49.932;8.308;2023-06-14T14:45:56;4.90;;;4.40;;
12556;SDS011;6344;49.932;8.308;2023-06-14T14:48:23;4.90;;;4.60;;
12556;SDS011;6344;49.932;8.308;2023-06-14T14:50:50;4.73;;;4.43;;
12556;SDS011;6344;49.932;8.308;2023-06-14T14:53:17;5.50;;;5.00;;
12556;SDS011;6344;49.932;8.308;2023-06-14T14:55:43;5.70;;;5.30;;
12556;SDS011;6344;49.932;8.308;2023-06-14T14:58:13;4.83;;;4.53;;
12556;SDS011;6344;49.932;8.308;2023-06-14T15:00:42;5.03;;;4.73;;
12556;SDS011;6344;49.932;8.308;2023-06-14T15:03:09;4.70;;;4.40;;
12556;SDS011;6344;49.932;8.308;2023-06-14T15:05:36;4.00;;;3.80;;
12556;SDS011;6344;49.932;8.308;2023-06-14T15:08:03;4.37;;;4.17;;
12556;SDS011;6344;49.932;8.308;2023-06-14T15:10:30;5.00;;;4.73;;